createdAt,value
2022-12-15T00:00:24.670Z,23.38
2022-12-15T00:05:44.780Z,24.85
2022-12-15T00:11:10.098Z,22.05
2022-12-15T00:16:30.326Z,16.70
2022-12-15T00:21:50.678Z,20.08
2022-12-15T00:27:11.889Z,21.42
2022-12-15T00:32:31.706Z,20.77
2022-12-15T00:37:51.571Z,18.67
2022-12-15T00:42:53.072Z,15.95
2022-12-15T00:47:54.438Z,16.33
2022-12-15T00:53:16.595Z,14.48
2022-12-15T00:58:43.822Z,15.30
2022-12-15T01:04:03.675Z,14.25
2022-12-15T01:09:29.562Z,13.38
2022-12-15T01:14:50.774Z,14.05
2022-12-15T01:20:10.578Z,13.88
2022-12-15T01:25:12.485Z,14.80
2022-12-15T01:30:16.961Z,16.48
2022-12-15T01:35:19.262Z,15.85
2022-12-15T01:40:40.161Z,13.57
2022-12-15T01:45:41.558Z,11.98
2022-12-15T01:50:53.511Z,12.75
2022-12-15T01:55:54.943Z,12.30
2022-12-15T02:00:56.970Z,14.15
2022-12-15T02:06:01.036Z,12.77
2022-12-15T02:11:11.609Z,11.60
2022-12-15T02:16:37.189Z,12.07
2022-12-15T02:21:51.816Z,13.18
2022-12-15T02:27:22.616Z,12.05
2022-12-15T02:32:30.880Z,15.32
2022-12-15T02:37:35.662Z,13.15
2022-12-15T02:42:45.455Z,12.38
2022-12-15T02:48:11.806Z,11.80
2022-12-15T02:53:50.749Z,13.93
2022-12-15T02:59:11.100Z,13.43
2022-12-15T03:04:13.271Z,11.15
2022-12-15T03:09:14.675Z,13.30
2022-12-15T03:14:16.629Z,14.68
2022-12-15T03:19:18.466Z,15.93
2022-12-15T03:24:19.880Z,14.50
2022-12-15T03:29:21.385Z,14.57
2022-12-15T03:34:22.839Z,14.95
2022-12-15T03:39:24.338Z,15.52
2022-12-15T03:44:25.836Z,13.20
2022-12-15T03:49:27.233Z,15.48
2022-12-15T03:54:28.672Z,12.57
2022-12-15T03:59:30.083Z,13.30
2022-12-15T04:04:31.492Z,12.82
2022-12-15T04:09:32.986Z,11.25
2022-12-15T04:14:34.588Z,11.07
2022-12-15T04:19:54.778Z,13.50
2022-12-15T04:25:14.540Z,12.43
2022-12-15T04:30:34.415Z,14.65
2022-12-15T04:35:54.635Z,18.45
2022-12-15T04:41:14.774Z,20.92
2022-12-15T04:46:34.757Z,17.58
2022-12-15T04:51:54.850Z,15.82
2022-12-15T04:57:14.738Z,15.90
2022-12-15T05:02:34.605Z,14.30
2022-12-15T05:07:55.365Z,16.20
2022-12-15T05:13:23.142Z,17.88
2022-12-15T05:18:42.899Z,16.65
2022-12-15T05:24:03.362Z,14.38
2022-12-15T05:29:23.732Z,17.55
2022-12-15T05:34:27.405Z,16.08
2022-12-15T05:39:29.695Z,15.98
2022-12-15T05:44:31.190Z,16.02
2022-12-15T05:49:33.376Z,17.13
2022-12-15T05:54:34.872Z,14.88
2022-12-15T05:59:36.433Z,18.40
2022-12-15T06:04:37.900Z,18.70
2022-12-15T06:09:41.984Z,16.88
2022-12-15T06:14:43.554Z,15.90
2022-12-15T06:19:45.016Z,16.92
2022-12-15T06:24:46.402Z,16.70
2022-12-15T06:29:47.970Z,14.32
2022-12-15T06:34:49.684Z,15.57
2022-12-15T06:39:51.041Z,14.48
2022-12-15T06:44:52.430Z,17.45
2022-12-15T06:49:53.912Z,16.75
2022-12-15T06:54:55.378Z,16.15
2022-12-15T06:59:56.819Z,16.83
2022-12-15T07:04:59.039Z,15.90
2022-12-15T07:10:00.591Z,15.35
2022-12-15T07:15:02.969Z,15.77
2022-12-15T07:20:05.226Z,13.57
2022-12-15T07:25:07.423Z,11.05
2022-12-15T07:30:09.264Z,13.02
2022-12-15T07:35:11.174Z,17.02
2022-12-15T07:40:12.683Z,16.92
2022-12-15T07:45:14.279Z,17.55
2022-12-15T07:50:15.814Z,17.85
2022-12-15T07:55:17.361Z,13.65
2022-12-15T08:00:19.486Z,14.65
2022-12-15T08:05:20.994Z,16.95
2022-12-15T08:10:22.453Z,17.45
2022-12-15T08:15:24.155Z,20.10
2022-12-15T08:20:25.780Z,23.00
2022-12-15T08:25:30.834Z,21.90
2022-12-15T08:30:33.287Z,24.40
2022-12-15T08:35:55.873Z,26.20
2022-12-15T08:40:56.945Z,23.45
2022-12-15T08:45:59.900Z,26.17
2022-12-15T08:51:01.797Z,29.65
2022-12-15T08:56:08.603Z,29.38
2022-12-15T09:01:30.029Z,28.20
2022-12-15T09:06:34.092Z,29.55
2022-12-15T09:11:39.578Z,28.33
2022-12-15T09:16:41.180Z,29.75
2022-12-15T09:21:45.014Z,32.35
2022-12-15T09:26:46.470Z,29.33
2022-12-15T09:31:47.900Z,32.83
2022-12-15T09:36:49.383Z,32.05
2022-12-15T09:41:59.105Z,32.80
2022-12-15T09:47:20.319Z,31.92
2022-12-15T09:52:31.820Z,36.63
2022-12-15T09:57:36.070Z,37.47
2022-12-15T10:02:59.094Z,39.15
2022-12-15T10:08:01.122Z,39.25
2022-12-15T10:13:10.217Z,43.47
2022-12-15T10:18:22.596Z,41.22
2022-12-15T10:23:25.628Z,41.95
2022-12-15T10:29:06.667Z,40.25
2022-12-15T10:34:32.907Z,45.22
2022-12-15T10:39:42.324Z,48.17
2022-12-15T10:44:50.679Z,53.45
2022-12-15T10:49:53.887Z,51.65
2022-12-15T10:54:56.332Z,52.85
2022-12-15T11:00:19.497Z,53.97
2022-12-15T11:05:21.730Z,52.08
2022-12-15T11:10:27.352Z,55.75
2022-12-15T11:15:31.953Z,50.15
2022-12-15T11:20:43.480Z,54.85
2022-12-15T11:26:07.165Z,51.33
2022-12-15T11:31:33.888Z,51.28
2022-12-15T11:37:13.906Z,55.80
2022-12-15T11:42:30.450Z,62.55
2022-12-15T11:47:40.805Z,65.85
2022-12-15T11:52:57.107Z,56.70
2022-12-15T11:58:10.869Z,52.07
2022-12-15T12:03:43.628Z,47.42
2022-12-15T12:08:54.165Z,45.78
2022-12-15T12:14:19.078Z,43.90
2022-12-15T12:19:28.306Z,34.97
2022-12-15T12:24:38.603Z,32.00
2022-12-15T12:29:50.700Z,32.50
2022-12-15T12:35:30.981Z,31.00
2022-12-15T12:40:57.809Z,26.15
2022-12-15T12:46:10.411Z,26.63
2022-12-15T12:51:17.338Z,29.88
2022-12-15T12:56:48.857Z,28.60
2022-12-15T13:01:52.646Z,29.40
2022-12-15T13:06:59.698Z,29.55
2022-12-15T13:12:20.767Z,30.08
2022-12-15T13:17:29.222Z,29.88
2022-12-15T13:27:42.192Z,27.98
2022-12-15T13:32:46.494Z,28.17
2022-12-15T13:37:59.286Z,30.98
2022-12-15T13:43:05.208Z,29.38
2022-12-15T13:48:20.242Z,29.10
2022-12-15T13:53:25.883Z,29.65
2022-12-15T13:58:39.363Z,28.45
2022-12-15T14:04:08.463Z,28.88
2022-12-15T14:09:17.305Z,29.65
2022-12-15T14:14:22.727Z,26.17
2022-12-15T14:19:24.497Z,27.98
2022-12-15T14:24:40.818Z,33.30
2022-12-15T14:29:44.898Z,27.20
2022-12-15T14:34:50.562Z,28.67
2022-12-15T14:39:53.839Z,29.13
2022-12-15T14:44:57.952Z,27.27
2022-12-15T14:50:09.500Z,28.35
2022-12-15T14:55:37.169Z,26.85
2022-12-15T15:06:01.163Z,27.42
2022-12-15T15:11:19.435Z,31.63
2022-12-15T15:16:21.005Z,31.00
2022-12-15T15:21:30.316Z,29.73
2022-12-15T15:26:32.173Z,28.70
2022-12-15T15:31:44.117Z,31.38
2022-12-15T15:36:45.575Z,30.27
2022-12-15T15:41:48.090Z,29.48
2022-12-15T15:46:51.841Z,27.25
2022-12-15T15:51:56.192Z,30.52
2022-12-15T15:56:59.625Z,24.75
2022-12-15T16:02:02.398Z,27.75
2022-12-15T16:07:21.116Z,27.98
2022-12-15T16:12:38.965Z,26.05
2022-12-15T16:17:52.913Z,29.17
2022-12-15T16:22:58.542Z,26.08
2022-12-15T16:28:00.231Z,23.55
2022-12-15T16:33:02.199Z,23.63
2022-12-15T16:38:12.764Z,23.40
2022-12-15T16:43:19.373Z,23.38
2022-12-15T16:48:21.108Z,24.38
2022-12-15T16:53:29.290Z,27.65
2022-12-15T16:58:32.429Z,27.45
2022-12-15T17:03:34.442Z,31.45
2022-12-15T17:08:46.934Z,31.90
2022-12-15T17:13:51.450Z,31.13
2022-12-15T17:18:53.498Z,40.00
2022-12-15T17:24:04.032Z,38.67
2022-12-15T17:29:09.125Z,35.35
2022-12-15T17:34:31.890Z,36.33
2022-12-15T17:39:35.133Z,38.35
2022-12-15T17:44:38.384Z,35.58
2022-12-15T17:49:40.468Z,38.53
2022-12-15T17:54:43.700Z,38.10
2022-12-15T17:59:45.336Z,36.53
2022-12-15T18:04:46.761Z,39.08
2022-12-15T18:09:50.134Z,38.38
2022-12-15T18:14:55.900Z,38.20
2022-12-15T18:19:57.423Z,38.10
2022-12-15T18:25:02.050Z,37.78
2022-12-15T18:30:04.046Z,33.83
2022-12-15T18:35:37.928Z,40.72
2022-12-15T18:40:41.519Z,39.67
2022-12-15T18:45:44.347Z,43.97
2022-12-15T18:50:47.520Z,41.83
2022-12-15T18:55:49.159Z,39.25
2022-12-15T19:00:54.842Z,41.17
2022-12-15T19:06:27.370Z,42.70
2022-12-15T19:11:32.687Z,40.00
2022-12-15T19:16:53.108Z,38.30
2022-12-15T19:21:54.679Z,39.25
2022-12-15T19:26:58.146Z,38.97
2022-12-15T19:32:00.863Z,37.53
2022-12-15T19:37:04.378Z,36.58
2022-12-15T19:42:13.139Z,35.38
2022-12-15T19:47:14.903Z,33.70
2022-12-15T19:52:17.905Z,31.75
2022-12-15T19:57:21.017Z,34.45
2022-12-15T20:02:22.739Z,29.98
2022-12-15T20:07:33.148Z,32.28
2022-12-15T20:12:34.653Z,33.85
2022-12-15T20:17:36.147Z,33.22
2022-12-15T20:22:37.641Z,29.83
2022-12-15T20:27:39.075Z,30.63
2022-12-15T20:32:40.497Z,30.52
2022-12-15T20:37:45.198Z,30.05
2022-12-15T20:42:46.998Z,28.70
2022-12-15T20:47:51.822Z,27.75
2022-12-15T20:52:55.063Z,26.92
2022-12-15T20:57:57.072Z,27.13
2022-12-15T21:02:59.165Z,23.67
2022-12-15T21:08:03.786Z,24.98
2022-12-15T21:13:27.602Z,25.45
2022-12-15T21:19:10.886Z,27.23
2022-12-15T21:23:51.630Z,27.58
2022-12-15T21:29:00.938Z,27.13
2022-12-15T21:34:02.365Z,27.17
2022-12-15T21:39:06.902Z,26.95
2022-12-15T21:44:13.933Z,28.67
2022-12-15T21:54:27.530Z,29.08
2022-12-15T21:59:32.857Z,27.80
2022-12-15T22:04:35.568Z,27.35
2022-12-15T22:09:36.996Z,22.65
2022-12-15T22:14:40.813Z,26.42
2022-12-15T22:19:42.294Z,23.85
2022-12-15T22:24:43.933Z,22.20
2022-12-15T22:29:45.810Z,20.33
2022-12-15T22:34:47.195Z,22.08
2022-12-15T22:39:49.550Z,22.85
2022-12-15T22:44:53.555Z,23.65
2022-12-15T22:49:56.344Z,24.27
2022-12-15T22:54:58.356Z,24.92
2022-12-15T23:00:09.191Z,21.42
2022-12-15T23:05:13.638Z,22.65
2022-12-15T23:10:36.381Z,22.60
2022-12-15T23:15:56.627Z,22.77
2022-12-15T23:20:58.154Z,22.30
2022-12-15T23:25:59.594Z,24.67
2022-12-15T23:31:01.317Z,23.05
2022-12-15T23:36:03.389Z,24.05
2022-12-15T23:41:05.234Z,26.27
2022-12-15T23:46:07.328Z,25.10
2022-12-15T23:51:20.885Z,24.85
2022-12-15T23:56:24.170Z,24.67
